sensor_id;sensor_type;location;lat;lon;timestamp;P1;durP1;ratioP1;P2;durP2;ratioP2
6638;SDS011;3355;52.882;8.430;2023-02-18T00:04:38;7.73;;;1.37;;
6638;SDS011;3355;52.882;8.430;2023-02-18T00:07:21;6.30;;;2.93;;
6638;SDS011;3355;52.882;8.430;2023-02-18T00:09:57;3.93;;;1.87;;
6638;SDS011;3355;52.882;8.430;2023-02-18T00:12:24;4.60;;;1.53;;
6638;SDS011;3355;52.882;8.430;2023-02-18T00:14:52;8.17;;;2.30;;
6638;SDS011;3355;52.882;8.430;2023-02-18T00:17:19;12.50;;;2.83;;
6638;SDS011;3355;52.882;8.430;2023-02-18T00:19:50;7.33;;;1.73;;
6638;SDS011;3355;52.882;8.430;2023-02-18T00:22:17;6.60;;;1.77;;
6638;SDS011;3355;52.882;8.430;2023-02-18T00:24:46;6.67;;;1.53;;
6638;SDS011;3355;52.882;8.430;2023-02-18T00:27:15;7.23;;;2.10;;
6638;SDS011;3355;52.882;8.430;2023-02-18T00:29:43;8.83;;;2.77;;
6638;SDS011;3355;52.882;8.430;2023-02-18T00:32:11;10.30;;;2.60;;
6638;SDS011;3355;52.882;8.430;2023-02-18T00:34:38;9.63;;;2.10;;
6638;SDS011;3355;52.882;8.430;2023-02-18T00:37:07;4.33;;;1.83;;
6638;SDS011;3355;52.882;8.430;2023-02-18T00:39:33;12.60;;;3.30;;
6638;SDS011;3355;52.882;8.430;2023-02-18T00:42:01;9.67;;;2.20;;
6638;SDS011;3355;52.882;8.430;2023-02-18T00:44:29;6.97;;;1.57;;
6638;SDS011;3355;52.882;8.430;2023-02-18T00:46:58;7.37;;;2.57;;
6638;SDS011;3355;52.882;8.430;2023-02-18T00:49:25;6.13;;;1.83;;
6638;SDS011;3355;52.882;8.430;2023-02-18T00:51:53;7.13;;;2.20;;
6638;SDS011;3355;52.882;8.430;2023-02-18T00:54:29;6.53;;;2.23;;
6638;SDS011;3355;52.882;8.430;2023-02-18T00:56:57;6.20;;;1.40;;
6638;SDS011;3355;52.882;8.430;2023-02-18T00:59:26;7.53;;;2.30;;
6638;SDS011;3355;52.882;8.430;2023-02-18T01:01:53;10.40;;;2.07;;
6638;SDS011;3355;52.882;8.430;2023-02-18T01:04:20;8.57;;;2.53;;
6638;SDS011;3355;52.882;8.430;2023-02-18T01:06:49;7.17;;;1.40;;
6638;SDS011;3355;52.882;8.430;2023-02-18T01:09:18;8.47;;;2.10;;
6638;SDS011;3355;52.882;8.430;2023-02-18T01:11:47;9.00;;;2.50;;
6638;SDS011;3355;52.882;8.430;2023-02-18T01:14:13;6.00;;;1.87;;
6638;SDS011;3355;52.882;8.430;2023-02-18T01:16:40;16.27;;;2.27;;
6638;SDS011;3355;52.882;8.430;2023-02-18T01:19:09;3.70;;;1.40;;
6638;SDS011;3355;52.882;8.430;2023-02-18T01:21:36;5.33;;;1.70;;
6638;SDS011;3355;52.882;8.430;2023-02-18T01:24:04;6.70;;;2.00;;
6638;SDS011;3355;52.882;8.430;2023-02-18T01:26:35;8.93;;;2.53;;
6638;SDS011;3355;52.882;8.430;2023-02-18T01:29:04;8.13;;;1.63;;
6638;SDS011;3355;52.882;8.430;2023-02-18T01:31:35;7.70;;;2.50;;
6638;SDS011;3355;52.882;8.430;2023-02-18T01:34:02;6.03;;;1.40;;
6638;SDS011;3355;52.882;8.430;2023-02-18T01:36:30;5.37;;;1.53;;
6638;SDS011;3355;52.882;8.430;2023-02-18T01:38:57;11.90;;;2.20;;
6638;SDS011;3355;52.882;8.430;2023-02-18T01:41:24;5.40;;;1.20;;
6638;SDS011;3355;52.882;8.430;2023-02-18T01:46:40;7.20;;;1.70;;
6638;SDS011;3355;52.882;8.430;2023-02-18T01:49:07;8.60;;;1.97;;
6638;SDS011;3355;52.882;8.430;2023-02-18T01:51:38;5.03;;;1.40;;
6638;SDS011;3355;52.882;8.430;2023-02-18T01:54:07;4.80;;;1.50;;
6638;SDS011;3355;52.882;8.430;2023-02-18T01:56:37;5.10;;;1.77;;
6638;SDS011;3355;52.882;8.430;2023-02-18T01:59:06;4.93;;;1.83;;
6638;SDS011;3355;52.882;8.430;2023-02-18T02:01:38;8.97;;;1.90;;
6638;SDS011;3355;52.882;8.430;2023-02-18T02:04:05;5.60;;;1.90;;
6638;SDS011;3355;52.882;8.430;2023-02-18T02:06:35;12.17;;;1.80;;
6638;SDS011;3355;52.882;8.430;2023-02-18T02:09:18;3.40;;;1.10;;
6638;SDS011;3355;52.882;8.430;2023-02-18T02:11:56;6.83;;;2.00;;
6638;SDS011;3355;52.882;8.430;2023-02-18T02:14:44;5.77;;;1.53;;
6638;SDS011;3355;52.882;8.430;2023-02-18T02:17:21;2.93;;;1.20;;
6638;SDS011;3355;52.882;8.430;2023-02-18T02:20:34;5.70;;;1.53;;
6638;SDS011;3355;52.882;8.430;2023-02-18T02:26:08;6.23;;;1.87;;
6638;SDS011;3355;52.882;8.430;2023-02-18T02:35:15;8.57;;;1.57;;
6638;SDS011;3355;52.882;8.430;2023-02-18T02:37:48;8.83;;;1.70;;
6638;SDS011;3355;52.882;8.430;2023-02-18T02:40:19;3.87;;;1.73;;
6638;SDS011;3355;52.882;8.430;2023-02-18T02:42:54;9.40;;;1.67;;
6638;SDS011;3355;52.882;8.430;2023-02-18T02:45:31;5.20;;;1.27;;
6638;SDS011;3355;52.882;8.430;2023-02-18T02:48:06;6.47;;;1.70;;
6638;SDS011;3355;52.882;8.430;2023-02-18T02:50:42;6.10;;;1.77;;
6638;SDS011;3355;52.882;8.430;2023-02-18T02:53:13;4.87;;;1.53;;
6638;SDS011;3355;52.882;8.430;2023-02-18T02:55:56;4.57;;;1.60;;
6638;SDS011;3355;52.882;8.430;2023-02-18T02:58:27;8.00;;;2.73;;
6638;SDS011;3355;52.882;8.430;2023-02-18T03:04:26;10.43;;;2.10;;
6638;SDS011;3355;52.882;8.430;2023-02-18T03:09:53;12.63;;;1.70;;
6638;SDS011;3355;52.882;8.430;2023-02-18T03:12:28;4.97;;;1.47;;
6638;SDS011;3355;52.882;8.430;2023-02-18T03:15:03;5.73;;;2.40;;
6638;SDS011;3355;52.882;8.430;2023-02-18T03:17:34;6.80;;;1.50;;
6638;SDS011;3355;52.882;8.430;2023-02-18T03:20:03;4.30;;;1.40;;
6638;SDS011;3355;52.882;8.430;2023-02-18T03:22:35;8.93;;;2.23;;
6638;SDS011;3355;52.882;8.430;2023-02-18T03:25:05;7.87;;;1.50;;
6638;SDS011;3355;52.882;8.430;2023-02-18T03:27:32;7.13;;;1.33;;
6638;SDS011;3355;52.882;8.430;2023-02-18T03:30:03;9.90;;;2.10;;
6638;SDS011;3355;52.882;8.430;2023-02-18T03:32:32;5.20;;;1.80;;
6638;SDS011;3355;52.882;8.430;2023-02-18T03:35:02;9.50;;;2.40;;
6638;SDS011;3355;52.882;8.430;2023-02-18T03:37:31;5.03;;;1.60;;
6638;SDS011;3355;52.882;8.430;2023-02-18T03:40:03;12.27;;;2.50;;
6638;SDS011;3355;52.882;8.430;2023-02-18T03:42:32;4.90;;;1.70;;
6638;SDS011;3355;52.882;8.430;2023-02-18T03:44:59;5.33;;;2.20;;
6638;SDS011;3355;52.882;8.430;2023-02-18T03:47:28;5.40;;;2.40;;
6638;SDS011;3355;52.882;8.430;2023-02-18T03:49:54;5.63;;;1.87;;
6638;SDS011;3355;52.882;8.430;2023-02-18T03:52:21;5.90;;;1.53;;
6638;SDS011;3355;52.882;8.430;2023-02-18T03:54:49;6.67;;;1.70;;
6638;SDS011;3355;52.882;8.430;2023-02-18T03:57:16;12.00;;;2.90;;
6638;SDS011;3355;52.882;8.430;2023-02-18T03:59:43;9.20;;;2.60;;
6638;SDS011;3355;52.882;8.430;2023-02-18T04:02:10;6.67;;;1.90;;
6638;SDS011;3355;52.882;8.430;2023-02-18T04:04:37;5.60;;;1.60;;
6638;SDS011;3355;52.882;8.430;2023-02-18T04:07:04;7.27;;;2.20;;
6638;SDS011;3355;52.882;8.430;2023-02-18T04:09:30;8.63;;;2.50;;
6638;SDS011;3355;52.882;8.430;2023-02-18T04:11:58;9.97;;;2.67;;
6638;SDS011;3355;52.882;8.430;2023-02-18T04:14:26;3.50;;;1.70;;
6638;SDS011;3355;52.882;8.430;2023-02-18T04:16:55;9.83;;;2.70;;
6638;SDS011;3355;52.882;8.430;2023-02-18T04:19:26;7.20;;;2.30;;
6638;SDS011;3355;52.882;8.430;2023-02-18T04:21:53;6.97;;;1.93;;
6638;SDS011;3355;52.882;8.430;2023-02-18T04:24:21;8.30;;;2.50;;
6638;SDS011;3355;52.882;8.430;2023-02-18T04:26:47;9.17;;;2.27;;
6638;SDS011;3355;52.882;8.430;2023-02-18T04:29:15;9.83;;;2.13;;
6638;SDS011;3355;52.882;8.430;2023-02-18T04:31:42;8.10;;;2.30;;
6638;SDS011;3355;52.882;8.430;2023-02-18T04:34:10;7.50;;;2.30;;
6638;SDS011;3355;52.882;8.430;2023-02-18T04:36:37;7.77;;;2.40;;
6638;SDS011;3355;52.882;8.430;2023-02-18T04:39:04;8.93;;;3.93;;
6638;SDS011;3355;52.882;8.430;2023-02-18T04:41:30;8.23;;;2.80;;
6638;SDS011;3355;52.882;8.430;2023-02-18T04:43:57;5.27;;;2.83;;
6638;SDS011;3355;52.882;8.430;2023-02-18T04:46:26;9.17;;;2.63;;
6638;SDS011;3355;52.882;8.430;2023-02-18T04:48:53;4.67;;;2.23;;
6638;SDS011;3355;52.882;8.430;2023-02-18T04:51:20;9.60;;;3.20;;
6638;SDS011;3355;52.882;8.430;2023-02-18T04:53:47;7.03;;;2.43;;
6638;SDS011;3355;52.882;8.430;2023-02-18T04:56:13;9.40;;;3.90;;
6638;SDS011;3355;52.882;8.430;2023-02-18T04:58:40;5.30;;;3.40;;
6638;SDS011;3355;52.882;8.430;2023-02-18T05:01:07;7.20;;;3.43;;
6638;SDS011;3355;52.882;8.430;2023-02-18T05:03:35;9.27;;;3.03;;
6638;SDS011;3355;52.882;8.430;2023-02-18T05:06:02;12.10;;;3.30;;
6638;SDS011;3355;52.882;8.430;2023-02-18T05:08:29;8.10;;;3.23;;
6638;SDS011;3355;52.882;8.430;2023-02-18T05:10:57;9.03;;;3.70;;
6638;SDS011;3355;52.882;8.430;2023-02-18T05:13:24;9.57;;;3.80;;
6638;SDS011;3355;52.882;8.430;2023-02-18T05:15:51;7.47;;;3.40;;
6638;SDS011;3355;52.882;8.430;2023-02-18T05:18:18;13.33;;;6.00;;
6638;SDS011;3355;52.882;8.430;2023-02-18T05:20:46;7.83;;;4.33;;
6638;SDS011;3355;52.882;8.430;2023-02-18T05:23:13;10.13;;;4.93;;
6638;SDS011;3355;52.882;8.430;2023-02-18T05:25:39;9.33;;;5.40;;
6638;SDS011;3355;52.882;8.430;2023-02-18T05:28:06;8.37;;;4.43;;
6638;SDS011;3355;52.882;8.430;2023-02-18T05:30:33;10.97;;;5.10;;
6638;SDS011;3355;52.882;8.430;2023-02-18T05:33:00;9.90;;;4.73;;
6638;SDS011;3355;52.882;8.430;2023-02-18T05:35:27;9.40;;;5.33;;
6638;SDS011;3355;52.882;8.430;2023-02-18T05:37:58;12.40;;;5.60;;
6638;SDS011;3355;52.882;8.430;2023-02-18T05:40:25;10.00;;;5.87;;
6638;SDS011;3355;52.882;8.430;2023-02-18T05:42:51;15.90;;;6.20;;
6638;SDS011;3355;52.882;8.430;2023-02-18T05:45:18;11.03;;;6.80;;
6638;SDS011;3355;52.882;8.430;2023-02-18T05:47:45;13.27;;;8.50;;
6638;SDS011;3355;52.882;8.430;2023-02-18T05:50:11;10.10;;;6.30;;
6638;SDS011;3355;52.882;8.430;2023-02-18T05:52:38;14.07;;;8.23;;
6638;SDS011;3355;52.882;8.430;2023-02-18T05:55:07;14.63;;;8.77;;
6638;SDS011;3355;52.882;8.430;2023-02-18T05:57:34;15.53;;;8.80;;
6638;SDS011;3355;52.882;8.430;2023-02-18T06:00:00;15.40;;;8.13;;
6638;SDS011;3355;52.882;8.430;2023-02-18T06:02:29;19.70;;;9.57;;
6638;SDS011;3355;52.882;8.430;2023-02-18T06:04:55;11.63;;;8.13;;
6638;SDS011;3355;52.882;8.430;2023-02-18T06:07:22;15.43;;;8.63;;
6638;SDS011;3355;52.882;8.430;2023-02-18T06:09:49;13.17;;;9.10;;
6638;SDS011;3355;52.882;8.430;2023-02-18T06:12:17;15.00;;;9.90;;
6638;SDS011;3355;52.882;8.430;2023-02-18T06:14:44;15.43;;;9.10;;
6638;SDS011;3355;52.882;8.430;2023-02-18T06:17:11;15.23;;;10.33;;
6638;SDS011;3355;52.882;8.430;2023-02-18T06:19:39;15.97;;;10.63;;
6638;SDS011;3355;52.882;8.430;2023-02-18T06:22:06;17.77;;;10.53;;
6638;SDS011;3355;52.882;8.430;2023-02-18T06:24:33;21.60;;;13.60;;
6638;SDS011;3355;52.882;8.430;2023-02-18T06:27:00;18.37;;;11.33;;
6638;SDS011;3355;52.882;8.430;2023-02-18T06:29:28;20.50;;;11.63;;
6638;SDS011;3355;52.882;8.430;2023-02-18T06:31:56;19.40;;;12.87;;
6638;SDS011;3355;52.882;8.430;2023-02-18T06:34:23;23.67;;;12.93;;
6638;SDS011;3355;52.882;8.430;2023-02-18T06:36:50;21.40;;;14.63;;
6638;SDS011;3355;52.882;8.430;2023-02-18T06:39:17;24.07;;;15.00;;
6638;SDS011;3355;52.882;8.430;2023-02-18T06:41:44;20.43;;;14.90;;
6638;SDS011;3355;52.882;8.430;2023-02-18T06:44:11;19.97;;;12.90;;
6638;SDS011;3355;52.882;8.430;2023-02-18T06:46:40;24.67;;;15.67;;
6638;SDS011;3355;52.882;8.430;2023-02-18T06:49:07;25.90;;;16.73;;
6638;SDS011;3355;52.882;8.430;2023-02-18T06:51:34;23.73;;;15.40;;
6638;SDS011;3355;52.882;8.430;2023-02-18T06:54:03;25.87;;;15.20;;
6638;SDS011;3355;52.882;8.430;2023-02-18T06:56:30;25.10;;;15.13;;
6638;SDS011;3355;52.882;8.430;2023-02-18T06:58:57;25.57;;;17.43;;
6638;SDS011;3355;52.882;8.430;2023-02-18T07:01:24;25.37;;;16.77;;
6638;SDS011;3355;52.882;8.430;2023-02-18T07:03:52;22.10;;;16.00;;
6638;SDS011;3355;52.882;8.430;2023-02-18T07:06:19;31.37;;;17.03;;
6638;SDS011;3355;52.882;8.430;2023-02-18T07:08:46;24.50;;;16.10;;
6638;SDS011;3355;52.882;8.430;2023-02-18T07:11:16;24.70;;;15.57;;
6638;SDS011;3355;52.882;8.430;2023-02-18T07:13:42;24.57;;;15.40;;
6638;SDS011;3355;52.882;8.430;2023-02-18T07:16:09;25.60;;;15.13;;
6638;SDS011;3355;52.882;8.430;2023-02-18T07:18:36;25.53;;;15.60;;
6638;SDS011;3355;52.882;8.430;2023-02-18T07:21:04;29.77;;;15.17;;
6638;SDS011;3355;52.882;8.430;2023-02-18T07:23:31;22.10;;;14.10;;
6638;SDS011;3355;52.882;8.430;2023-02-18T07:26:02;22.73;;;13.70;;
6638;SDS011;3355;52.882;8.430;2023-02-18T07:28:30;22.13;;;14.30;;
6638;SDS011;3355;52.882;8.430;2023-02-18T07:30:56;23.63;;;12.90;;
6638;SDS011;3355;52.882;8.430;2023-02-18T07:33:23;20.90;;;12.30;;
6638;SDS011;3355;52.882;8.430;2023-02-18T07:35:54;23.03;;;11.73;;
6638;SDS011;3355;52.882;8.430;2023-02-18T07:38:23;18.07;;;11.00;;
6638;SDS011;3355;52.882;8.430;2023-02-18T07:40:51;16.17;;;10.37;;
6638;SDS011;3355;52.882;8.430;2023-02-18T07:43:18;17.03;;;10.47;;
6638;SDS011;3355;52.882;8.430;2023-02-18T07:45:45;17.60;;;9.20;;
6638;SDS011;3355;52.882;8.430;2023-02-18T07:48:12;16.77;;;9.40;;
6638;SDS011;3355;52.882;8.430;2023-02-18T07:50:39;15.17;;;8.07;;
6638;SDS011;3355;52.882;8.430;2023-02-18T07:53:06;14.57;;;8.03;;
6638;SDS011;3355;52.882;8.430;2023-02-18T07:55:35;13.80;;;7.70;;
6638;SDS011;3355;52.882;8.430;2023-02-18T07:58:17;12.40;;;7.27;;
6638;SDS011;3355;52.882;8.430;2023-02-18T08:00:45;11.90;;;7.20;;
6638;SDS011;3355;52.882;8.430;2023-02-18T08:03:14;11.47;;;6.30;;
6638;SDS011;3355;52.882;8.430;2023-02-18T08:05:42;10.70;;;6.70;;
6638;SDS011;3355;52.882;8.430;2023-02-18T08:08:11;10.00;;;6.23;;
6638;SDS011;3355;52.882;8.430;2023-02-18T08:10:40;12.23;;;5.23;;
6638;SDS011;3355;52.882;8.430;2023-02-18T08:13:08;10.20;;;5.37;;
6638;SDS011;3355;52.882;8.430;2023-02-18T08:15:35;7.93;;;4.70;;
6638;SDS011;3355;52.882;8.430;2023-02-18T08:18:02;7.27;;;4.47;;
6638;SDS011;3355;52.882;8.430;2023-02-18T08:20:30;7.40;;;3.60;;
6638;SDS011;3355;52.882;8.430;2023-02-18T08:22:56;8.40;;;5.00;;
6638;SDS011;3355;52.882;8.430;2023-02-18T08:25:23;7.20;;;3.87;;
6638;SDS011;3355;52.882;8.430;2023-02-18T08:27:52;8.60;;;4.30;;
6638;SDS011;3355;52.882;8.430;2023-02-18T08:30:18;6.10;;;3.37;;
6638;SDS011;3355;52.882;8.430;2023-02-18T08:32:45;6.77;;;3.87;;
6638;SDS011;3355;52.882;8.430;2023-02-18T08:35:12;5.73;;;3.57;;
6638;SDS011;3355;52.882;8.430;2023-02-18T08:37:39;5.20;;;3.37;;
6638;SDS011;3355;52.882;8.430;2023-02-18T08:40:06;5.80;;;3.70;;
6638;SDS011;3355;52.882;8.430;2023-02-18T08:42:34;6.77;;;3.20;;
6638;SDS011;3355;52.882;8.430;2023-02-18T08:45:02;6.40;;;2.90;;
6638;SDS011;3355;52.882;8.430;2023-02-18T08:47:29;4.07;;;2.33;;
6638;SDS011;3355;52.882;8.430;2023-02-18T08:49:55;4.80;;;2.70;;
6638;SDS011;3355;52.882;8.430;2023-02-18T08:52:22;5.10;;;2.77;;
6638;SDS011;3355;52.882;8.430;2023-02-18T08:54:49;5.43;;;2.73;;
6638;SDS011;3355;52.882;8.430;2023-02-18T08:57:16;4.13;;;2.77;;
6638;SDS011;3355;52.882;8.430;2023-02-18T08:59:43;4.30;;;2.50;;
6638;SDS011;3355;52.882;8.430;2023-02-18T09:02:11;4.93;;;2.63;;
6638;SDS011;3355;52.882;8.430;2023-02-18T09:04:38;4.70;;;2.23;;
6638;SDS011;3355;52.882;8.430;2023-02-18T09:07:05;3.70;;;2.60;;
6638;SDS011;3355;52.882;8.430;2023-02-18T09:09:32;4.20;;;2.30;;
6638;SDS011;3355;52.882;8.430;2023-02-18T09:11:59;4.83;;;1.83;;
6638;SDS011;3355;52.882;8.430;2023-02-18T09:14:25;3.90;;;2.43;;
6638;SDS011;3355;52.882;8.430;2023-02-18T09:16:52;3.50;;;1.97;;
6638;SDS011;3355;52.882;8.430;2023-02-18T09:19:20;3.40;;;1.90;;
6638;SDS011;3355;52.882;8.430;2023-02-18T09:21:49;3.40;;;1.77;;
6638;SDS011;3355;52.882;8.430;2023-02-18T09:24:17;2.80;;;1.60;;
6638;SDS011;3355;52.882;8.430;2023-02-18T09:26:43;2.63;;;1.53;;
6638;SDS011;3355;52.882;8.430;2023-02-18T09:29:10;3.73;;;1.83;;
6638;SDS011;3355;52.882;8.430;2023-02-18T09:31:37;3.70;;;1.80;;
6638;SDS011;3355;52.882;8.430;2023-02-18T09:34:04;3.17;;;1.67;;
6638;SDS011;3355;52.882;8.430;2023-02-18T09:36:32;3.70;;;2.40;;
6638;SDS011;3355;52.882;8.430;2023-02-18T09:38:59;4.03;;;2.57;;
6638;SDS011;3355;52.882;8.430;2023-02-18T09:41:29;5.17;;;3.20;;
6638;SDS011;3355;52.882;8.430;2023-02-18T09:44:00;5.77;;;3.17;;
6638;SDS011;3355;52.882;8.430;2023-02-18T09:46:29;6.10;;;3.60;;
6638;SDS011;3355;52.882;8.430;2023-02-18T09:48:59;6.17;;;3.40;;
6638;SDS011;3355;52.882;8.430;2023-02-18T09:51:28;6.13;;;3.90;;
6638;SDS011;3355;52.882;8.430;2023-02-18T09:53:57;5.90;;;3.73;;
6638;SDS011;3355;52.882;8.430;2023-02-18T09:56:26;7.67;;;4.13;;
6638;SDS011;3355;52.882;8.430;2023-02-18T09:58:54;5.90;;;4.00;;
6638;SDS011;3355;52.882;8.430;2023-02-18T10:01:24;8.30;;;3.97;;
6638;SDS011;3355;52.882;8.430;2023-02-18T10:03:54;6.33;;;4.07;;
6638;SDS011;3355;52.882;8.430;2023-02-18T10:06:24;8.13;;;3.80;;
6638;SDS011;3355;52.882;8.430;2023-02-18T10:08:52;8.57;;;3.80;;
6638;SDS011;3355;52.882;8.430;2023-02-18T10:11:23;9.00;;;4.20;;
6638;SDS011;3355;52.882;8.430;2023-02-18T10:13:54;5.20;;;3.50;;
6638;SDS011;3355;52.882;8.430;2023-02-18T10:16:22;5.70;;;4.20;;
6638;SDS011;3355;52.882;8.430;2023-02-18T10:18:50;4.30;;;2.60;;
6638;SDS011;3355;52.882;8.430;2023-02-18T10:21:20;11.47;;;4.20;;
6638;SDS011;3355;52.882;8.430;2023-02-18T10:23:50;4.87;;;3.20;;
6638;SDS011;3355;52.882;8.430;2023-02-18T10:26:19;7.57;;;4.23;;
6638;SDS011;3355;52.882;8.430;2023-02-18T10:28:47;6.20;;;3.23;;
6638;SDS011;3355;52.882;8.430;2023-02-18T10:31:16;5.20;;;3.23;;
6638;SDS011;3355;52.882;8.430;2023-02-18T10:33:46;5.73;;;3.20;;
6638;SDS011;3355;52.882;8.430;2023-02-18T10:36:28;4.20;;;2.70;;
6638;SDS011;3355;52.882;8.430;2023-02-18T10:39:12;6.23;;;3.50;;
6638;SDS011;3355;52.882;8.430;2023-02-18T10:41:49;5.93;;;2.87;;
6638;SDS011;3355;52.882;8.430;2023-02-18T10:44:22;5.00;;;3.00;;
6638;SDS011;3355;52.882;8.430;2023-02-18T10:46:54;5.20;;;2.70;;
6638;SDS011;3355;52.882;8.430;2023-02-18T10:49:32;4.90;;;2.33;;
6638;SDS011;3355;52.882;8.430;2023-02-18T10:52:13;4.80;;;2.53;;
6638;SDS011;3355;52.882;8.430;2023-02-18T10:54:48;4.67;;;2.47;;
6638;SDS011;3355;52.882;8.430;2023-02-18T10:57:18;4.30;;;2.70;;
6638;SDS011;3355;52.882;8.430;2023-02-18T10:59:53;3.67;;;2.23;;
6638;SDS011;3355;52.882;8.430;2023-02-18T11:02:22;4.40;;;2.10;;
6638;SDS011;3355;52.882;8.430;2023-02-18T11:04:50;3.53;;;1.90;;
6638;SDS011;3355;52.882;8.430;2023-02-18T11:07:18;3.50;;;1.70;;
6638;SDS011;3355;52.882;8.430;2023-02-18T11:09:48;3.80;;;1.83;;
6638;SDS011;3355;52.882;8.430;2023-02-18T11:12:16;2.60;;;1.30;;
6638;SDS011;3355;52.882;8.430;2023-02-18T11:14:48;5.10;;;1.70;;
6638;SDS011;3355;52.882;8.430;2023-02-18T11:17:18;2.73;;;1.50;;
6638;SDS011;3355;52.882;8.430;2023-02-18T11:19:54;2.50;;;1.50;;
6638;SDS011;3355;52.882;8.430;2023-02-18T11:22:24;2.80;;;1.40;;
6638;SDS011;3355;52.882;8.430;2023-02-18T11:24:53;2.50;;;1.50;;
6638;SDS011;3355;52.882;8.430;2023-02-18T11:27:34;2.30;;;1.20;;
6638;SDS011;3355;52.882;8.430;2023-02-18T11:30:15;2.90;;;1.33;;
6638;SDS011;3355;52.882;8.430;2023-02-18T11:32:44;2.73;;;1.40;;
6638;SDS011;3355;52.882;8.430;2023-02-18T11:35:16;2.63;;;1.40;;
6638;SDS011;3355;52.882;8.430;2023-02-18T11:37:44;2.47;;;1.20;;
6638;SDS011;3355;52.882;8.430;2023-02-18T11:40:18;2.80;;;1.57;;
6638;SDS011;3355;52.882;8.430;2023-02-18T11:42:48;3.63;;;1.30;;
6638;SDS011;3355;52.882;8.430;2023-02-18T11:45:25;3.60;;;1.43;;
6638;SDS011;3355;52.882;8.430;2023-02-18T11:47:57;3.33;;;1.70;;
6638;SDS011;3355;52.882;8.430;2023-02-18T11:50:29;3.43;;;1.53;;
6638;SDS011;3355;52.882;8.430;2023-02-18T11:53:00;3.30;;;1.97;;
6638;SDS011;3355;52.882;8.430;2023-02-18T11:55:52;3.60;;;2.00;;
6638;SDS011;3355;52.882;8.430;2023-02-18T11:58:22;5.27;;;2.20;;
6638;SDS011;3355;52.882;8.430;2023-02-18T12:00:50;4.40;;;1.97;;
6638;SDS011;3355;52.882;8.430;2023-02-18T12:03:32;9.60;;;2.83;;
6638;SDS011;3355;52.882;8.430;2023-02-18T12:06:04;2.83;;;1.80;;
6638;SDS011;3355;52.882;8.430;2023-02-18T12:08:37;7.27;;;3.27;;
6638;SDS011;3355;52.882;8.430;2023-02-18T12:11:11;8.10;;;2.70;;
6638;SDS011;3355;52.882;8.430;2023-02-18T12:13:46;7.97;;;2.83;;
6638;SDS011;3355;52.882;8.430;2023-02-18T12:16:17;4.80;;;2.70;;
6638;SDS011;3355;52.882;8.430;2023-02-18T12:18:51;5.23;;;2.57;;
6638;SDS011;3355;52.882;8.430;2023-02-18T12:21:25;8.40;;;2.90;;
6638;SDS011;3355;52.882;8.430;2023-02-18T12:24:05;6.07;;;3.47;;
6638;SDS011;3355;52.882;8.430;2023-02-18T12:26:40;7.20;;;2.80;;
6638;SDS011;3355;52.882;8.430;2023-02-18T12:29:35;9.23;;;3.40;;
6638;SDS011;3355;52.882;8.430;2023-02-18T12:32:26;6.70;;;2.60;;
6638;SDS011;3355;52.882;8.430;2023-02-18T12:35:01;5.87;;;3.00;;
6638;SDS011;3355;52.882;8.430;2023-02-18T12:37:51;8.50;;;2.50;;
6638;SDS011;3355;52.882;8.430;2023-02-18T12:40:33;6.20;;;2.70;;
6638;SDS011;3355;52.882;8.430;2023-02-18T12:43:08;5.60;;;2.87;;
6638;SDS011;3355;52.882;8.430;2023-02-18T12:45:51;6.97;;;3.43;;
6638;SDS011;3355;52.882;8.430;2023-02-18T12:48:30;5.43;;;2.40;;
6638;SDS011;3355;52.882;8.430;2023-02-18T12:51:24;9.57;;;3.47;;
6638;SDS011;3355;52.882;8.430;2023-02-18T12:53:59;12.93;;;3.50;;
6638;SDS011;3355;52.882;8.430;2023-02-18T12:56:39;6.77;;;3.00;;
6638;SDS011;3355;52.882;8.430;2023-02-18T12:59:16;12.60;;;2.57;;
6638;SDS011;3355;52.882;8.430;2023-02-18T13:01:50;7.33;;;2.20;;
6638;SDS011;3355;52.882;8.430;2023-02-18T13:04:24;7.50;;;2.80;;
6638;SDS011;3355;52.882;8.430;2023-02-18T13:07:02;6.27;;;2.70;;
6638;SDS011;3355;52.882;8.430;2023-02-18T13:09:53;6.40;;;3.10;;
6638;SDS011;3355;52.882;8.430;2023-02-18T13:12:27;5.17;;;2.73;;
6638;SDS011;3355;52.882;8.430;2023-02-18T13:14:59;8.97;;;2.90;;
6638;SDS011;3355;52.882;8.430;2023-02-18T13:17:30;7.87;;;2.80;;
6638;SDS011;3355;52.882;8.430;2023-02-18T13:20:00;9.20;;;2.77;;
6638;SDS011;3355;52.882;8.430;2023-02-18T13:22:29;6.40;;;2.50;;
6638;SDS011;3355;52.882;8.430;2023-02-18T13:24:56;8.53;;;2.70;;
6638;SDS011;3355;52.882;8.430;2023-02-18T13:27:24;8.70;;;3.00;;
6638;SDS011;3355;52.882;8.430;2023-02-18T13:29:59;7.27;;;2.43;;
6638;SDS011;3355;52.882;8.430;2023-02-18T13:32:36;6.00;;;2.17;;
6638;SDS011;3355;52.882;8.430;2023-02-18T13:35:16;6.60;;;2.90;;
6638;SDS011;3355;52.882;8.430;2023-02-18T13:37:49;6.83;;;3.50;;
6638;SDS011;3355;52.882;8.430;2023-02-18T13:40:21;5.73;;;2.33;;
6638;SDS011;3355;52.882;8.430;2023-02-18T13:42:52;9.23;;;2.60;;
6638;SDS011;3355;52.882;8.430;2023-02-18T13:45:23;7.60;;;3.00;;
6638;SDS011;3355;52.882;8.430;2023-02-18T13:47:55;7.83;;;3.53;;
6638;SDS011;3355;52.882;8.430;2023-02-18T13:50:27;7.53;;;2.30;;
6638;SDS011;3355;52.882;8.430;2023-02-18T13:55:49;4.80;;;2.33;;
6638;SDS011;3355;52.882;8.430;2023-02-18T13:58:22;7.67;;;3.13;;
6638;SDS011;3355;52.882;8.430;2023-02-18T14:01:13;5.40;;;2.23;;
6638;SDS011;3355;52.882;8.430;2023-02-18T14:03:54;7.60;;;2.73;;
6638;SDS011;3355;52.882;8.430;2023-02-18T14:06:22;5.03;;;2.17;;
6638;SDS011;3355;52.882;8.430;2023-02-18T14:08:51;8.33;;;2.70;;
6638;SDS011;3355;52.882;8.430;2023-02-18T14:11:45;6.90;;;2.40;;
6638;SDS011;3355;52.882;8.430;2023-02-18T14:14:15;5.37;;;2.50;;
6638;SDS011;3355;52.882;8.430;2023-02-18T14:17:13;7.07;;;2.73;;
6638;SDS011;3355;52.882;8.430;2023-02-18T14:26:19;6.40;;;2.10;;
6638;SDS011;3355;52.882;8.430;2023-02-18T14:28:53;17.10;;;8.60;;
6638;SDS011;3355;52.882;8.430;2023-02-18T14:31:34;6.43;;;2.20;;
6638;SDS011;3355;52.882;8.430;2023-02-18T14:34:13;5.27;;;2.10;;
6638;SDS011;3355;52.882;8.430;2023-02-18T14:36:49;7.20;;;2.73;;
6638;SDS011;3355;52.882;8.430;2023-02-18T14:39:27;5.03;;;2.03;;
6638;SDS011;3355;52.882;8.430;2023-02-18T14:42:01;7.70;;;1.63;;
6638;SDS011;3355;52.882;8.430;2023-02-18T14:44:44;6.23;;;2.13;;
6638;SDS011;3355;52.882;8.430;2023-02-18T14:47:25;4.97;;;1.87;;
6638;SDS011;3355;52.882;8.430;2023-02-18T14:49:56;5.10;;;1.60;;
6638;SDS011;3355;52.882;8.430;2023-02-18T14:52:29;5.20;;;1.47;;
6638;SDS011;3355;52.882;8.430;2023-02-18T14:54:59;4.23;;;2.00;;
6638;SDS011;3355;52.882;8.430;2023-02-18T14:57:31;7.10;;;2.57;;
6638;SDS011;3355;52.882;8.430;2023-02-18T14:59:59;5.97;;;2.07;;
6638;SDS011;3355;52.882;8.430;2023-02-18T15:02:28;13.77;;;2.53;;
6638;SDS011;3355;52.882;8.430;2023-02-18T15:05:04;5.93;;;2.70;;
6638;SDS011;3355;52.882;8.430;2023-02-18T15:07:41;4.17;;;1.60;;
6638;SDS011;3355;52.882;8.430;2023-02-18T15:10:17;6.67;;;2.07;;
6638;SDS011;3355;52.882;8.430;2023-02-18T15:12:43;8.00;;;1.90;;
6638;SDS011;3355;52.882;8.430;2023-02-18T15:15:18;7.30;;;2.57;;
6638;SDS011;3355;52.882;8.430;2023-02-18T15:17:53;5.60;;;2.50;;
6638;SDS011;3355;52.882;8.430;2023-02-18T15:20:20;8.47;;;2.70;;
6638;SDS011;3355;52.882;8.430;2023-02-18T15:22:52;4.87;;;2.30;;
6638;SDS011;3355;52.882;8.430;2023-02-18T15:25:19;4.33;;;1.73;;
6638;SDS011;3355;52.882;8.430;2023-02-18T15:27:45;9.07;;;2.90;;
6638;SDS011;3355;52.882;8.430;2023-02-18T15:30:16;5.27;;;1.67;;
6638;SDS011;3355;52.882;8.430;2023-02-18T15:32:53;7.50;;;1.57;;
6638;SDS011;3355;52.882;8.430;2023-02-18T15:35:27;6.57;;;1.53;;
6638;SDS011;3355;52.882;8.430;2023-02-18T15:37:59;7.47;;;1.70;;
6638;SDS011;3355;52.882;8.430;2023-02-18T15:40:29;10.10;;;1.97;;
6638;SDS011;3355;52.882;8.430;2023-02-18T15:42:59;5.00;;;1.70;;
6638;SDS011;3355;52.882;8.430;2023-02-18T15:45:29;4.70;;;1.57;;
6638;SDS011;3355;52.882;8.430;2023-02-18T15:48:05;5.57;;;1.60;;
6638;SDS011;3355;52.882;8.430;2023-02-18T15:50:44;6.57;;;2.30;;
6638;SDS011;3355;52.882;8.430;2023-02-18T15:53:15;8.43;;;3.17;;
6638;SDS011;3355;52.882;8.430;2023-02-18T15:55:45;7.20;;;3.27;;
6638;SDS011;3355;52.882;8.430;2023-02-18T15:58:15;4.93;;;3.17;;
6638;SDS011;3355;52.882;8.430;2023-02-18T16:00:46;6.67;;;2.93;;
6638;SDS011;3355;52.882;8.430;2023-02-18T16:03:17;6.80;;;1.53;;